createdAt,value
2022-08-30T00:01:44.895Z,102064.72
2022-08-30T00:03:48.508Z,102064.63
2022-08-30T00:05:52.455Z,102072.66
2022-08-30T00:08:00.286Z,102076.06
2022-08-30T00:10:06.094Z,102065.38
2022-08-30T00:12:10.326Z,102070.72
2022-08-30T00:14:13.681Z,102074.16
2022-08-30T00:16:17.207Z,102075.00
2022-08-30T00:18:21.459Z,102080.44
2022-08-30T00:20:31.360Z,102083.88
2022-08-30T00:22:34.943Z,102078.44
2022-08-30T00:24:38.423Z,102083.56
2022-08-30T00:26:43.135Z,102079.72
2022-08-30T00:28:46.826Z,102080.41
2022-08-30T00:30:50.670Z,102089.19
2022-08-30T00:32:54.712Z,102089.84
2022-08-30T00:34:58.115Z,102087.47
2022-08-30T00:37:02.925Z,102094.63
2022-08-30T00:39:07.470Z,102094.53
2022-08-30T00:41:10.722Z,102092.03
2022-08-30T00:43:20.258Z,102093.00
2022-08-30T00:45:26.345Z,102104.50
2022-08-30T00:47:29.645Z,102105.22
2022-08-30T00:49:34.875Z,102108.19
2022-08-30T00:51:39.577Z,102101.97
2022-08-30T00:53:45.878Z,102108.84
2022-08-30T00:55:50.623Z,102108.00
2022-08-30T00:57:59.780Z,102105.22
2022-08-30T01:00:08.488Z,102108.78
2022-08-30T01:02:12.707Z,102108.84
2022-08-30T01:04:17.169Z,102107.16
2022-08-30T01:06:20.584Z,102104.50
2022-08-30T01:08:24.087Z,102110.75
2022-08-30T01:10:27.320Z,102111.53
2022-08-30T01:12:31.278Z,102111.34
2022-08-30T01:14:34.982Z,102116.69
2022-08-30T01:16:43.440Z,102107.78
2022-08-30T01:18:47.396Z,102113.34
2022-08-30T01:21:02.792Z,102115.66
2022-08-30T01:23:12.621Z,102118.66
2022-08-30T01:25:18.706Z,102112.41
2022-08-30T01:27:23.554Z,102109.63
2022-08-30T01:29:27.752Z,102114.88
2022-08-30T01:31:31.021Z,102116.72
2022-08-30T01:33:34.385Z,102116.91
2022-08-30T01:35:44.672Z,102115.41
2022-08-30T01:37:48.670Z,102120.75
2022-08-30T01:39:53.464Z,102122.47
2022-08-30T01:41:56.762Z,102120.75
2022-08-30T01:44:03.074Z,102119.16
2022-08-30T01:46:06.932Z,102118.38
2022-08-30T01:48:12.994Z,102119.47
2022-08-30T01:50:16.805Z,102121.25
2022-08-30T01:52:22.418Z,102117.94
2022-08-30T01:54:27.319Z,102119.19
2022-08-30T01:56:38.012Z,102119.28
2022-08-30T01:58:42.005Z,102115.88
2022-08-30T02:00:45.252Z,102116.81
2022-08-30T02:02:49.019Z,102112.31
2022-08-30T02:04:53.583Z,102116.06
2022-08-30T02:06:56.901Z,102113.38
2022-08-30T02:09:00.606Z,102108.13
2022-08-30T02:11:04.657Z,102110.16
2022-08-30T02:13:09.369Z,102104.16
2022-08-30T02:15:13.097Z,102113.53
2022-08-30T02:17:17.351Z,102113.91
2022-08-30T02:19:20.962Z,102114.13
2022-08-30T02:21:24.923Z,102109.84
2022-08-30T02:23:28.431Z,102109.16
2022-08-30T02:25:31.666Z,102108.41
2022-08-30T02:27:35.125Z,102104.13
2022-08-30T02:29:39.851Z,102107.00
2022-08-30T02:31:43.173Z,102100.88
2022-08-30T02:33:46.522Z,102101.66
2022-08-30T02:35:50.331Z,102108.63
2022-08-30T02:37:53.758Z,102106.81
2022-08-30T02:39:57.065Z,102109.56
2022-08-30T02:42:00.359Z,102114.81
2022-08-30T02:44:04.037Z,102113.09
2022-08-30T02:46:08.832Z,102111.47
2022-08-30T02:48:12.355Z,102119.56
2022-08-30T02:50:16.109Z,102118.63
2022-08-30T02:52:20.447Z,102115.13
2022-08-30T02:54:33.348Z,102121.50
2022-08-30T02:56:36.789Z,102124.19
2022-08-30T02:58:42.603Z,102115.97
2022-08-30T03:00:46.014Z,102116.91
2022-08-30T03:02:50.928Z,102108.34
2022-08-30T03:04:54.721Z,102105.84
2022-08-30T03:06:57.998Z,102108.00
2022-08-30T03:09:01.348Z,102108.06
2022-08-30T03:11:05.174Z,102108.16
2022-08-30T03:13:09.106Z,102111.78
2022-08-30T03:15:13.833Z,102116.38
2022-08-30T03:17:17.226Z,102106.84
2022-08-30T03:19:22.439Z,102111.34
2022-08-30T03:21:25.907Z,102110.34
2022-08-30T03:23:29.184Z,102103.38
2022-08-30T03:25:33.952Z,102109.88
2022-08-30T03:27:37.341Z,102112.53
2022-08-30T03:29:40.681Z,102110.84
2022-08-30T03:31:53.091Z,102111.03
2022-08-30T03:33:56.939Z,102106.66
2022-08-30T03:36:01.668Z,102108.41
2022-08-30T03:38:05.948Z,102106.66
2022-08-30T03:40:11.942Z,102104.91
2022-08-30T03:42:15.434Z,102104.22
2022-08-30T03:44:20.338Z,102103.56
2022-08-30T03:46:24.734Z,102103.84
2022-08-30T03:48:32.966Z,102107.44
2022-08-30T03:50:37.013Z,102107.66
2022-08-30T03:52:41.871Z,102103.34
2022-08-30T03:54:45.169Z,102104.41
2022-08-30T03:56:48.446Z,102101.81
2022-08-30T03:58:51.880Z,102102.03
2022-08-30T04:00:55.237Z,102103.94
2022-08-30T04:02:58.556Z,102114.69
2022-08-30T04:05:01.816Z,102122.69
2022-08-30T04:07:05.364Z,102110.03
2022-08-30T04:09:09.977Z,102129.28
2022-08-30T04:11:15.072Z,102121.94
2022-08-30T04:13:19.368Z,102128.78
2022-08-30T04:15:22.617Z,102122.41
2022-08-30T04:17:26.243Z,102129.28
2022-08-30T04:19:29.588Z,102122.91
2022-08-30T04:21:32.936Z,102127.19
2022-08-30T04:23:40.008Z,102122.56
2022-08-30T04:25:44.831Z,102119.81
2022-08-30T04:27:48.269Z,102125.88
2022-08-30T04:29:51.648Z,102122.19
2022-08-30T04:31:59.605Z,102119.41
2022-08-30T04:34:02.914Z,102122.06
2022-08-30T04:36:08.286Z,102119.59
2022-08-30T04:38:11.705Z,102119.03
2022-08-30T04:40:15.692Z,102116.72
2022-08-30T04:42:20.555Z,102115.28
2022-08-30T04:44:23.852Z,102121.78
2022-08-30T04:46:27.107Z,102120.16
2022-08-30T04:48:30.414Z,102126.63
2022-08-30T04:50:33.867Z,102131.38
2022-08-30T04:52:48.512Z,102130.53
2022-08-30T04:54:55.664Z,102137.09
2022-08-30T04:56:59.027Z,102133.06
2022-08-30T04:59:03.797Z,102129.78
2022-08-30T05:01:12.734Z,102133.59
2022-08-30T05:03:18.063Z,102134.66
2022-08-30T05:05:39.115Z,102139.13
2022-08-30T05:07:42.365Z,102145.34
2022-08-30T05:09:45.660Z,102147.22
2022-08-30T05:11:49.179Z,102146.47
2022-08-30T05:13:52.543Z,102155.22
2022-08-30T05:15:57.274Z,102157.69
2022-08-30T05:18:00.660Z,102160.28
2022-08-30T05:20:04.317Z,102170.00
2022-08-30T05:22:07.636Z,102172.47
2022-08-30T05:24:10.874Z,102174.88
2022-08-30T05:26:17.188Z,102175.38
2022-08-30T05:28:24.324Z,102174.34
2022-08-30T05:30:29.846Z,102183.97
2022-08-30T05:32:34.543Z,102179.38
2022-08-30T05:34:37.918Z,102188.19
2022-08-30T05:36:41.741Z,102188.19
2022-08-30T05:38:46.220Z,102195.31
2022-08-30T05:40:50.218Z,102194.47
2022-08-30T05:42:53.686Z,102189.13
2022-08-30T05:44:57.102Z,102193.66
2022-08-30T05:47:00.419Z,102195.50
2022-08-30T05:49:07.345Z,102201.69
2022-08-30T05:51:12.744Z,102199.19
2022-08-30T05:53:16.008Z,102200.44
2022-08-30T05:55:19.820Z,102205.84
2022-08-30T05:57:23.692Z,102203.44
2022-08-30T05:59:27.208Z,102199.94
2022-08-30T06:01:33.214Z,102210.69
2022-08-30T06:03:36.566Z,102202.69
2022-08-30T06:05:41.366Z,102199.13
2022-08-30T06:07:44.959Z,102200.13
2022-08-30T06:09:48.266Z,102200.13
2022-08-30T06:11:51.667Z,102196.47
2022-08-30T06:13:55.981Z,102198.09
2022-08-30T06:15:59.353Z,102190.03
2022-08-30T06:18:02.700Z,102193.13
2022-08-30T06:20:07.030Z,102189.78
2022-08-30T06:22:11.804Z,102193.72
2022-08-30T06:24:15.168Z,102203.75
2022-08-30T06:26:19.508Z,102203.31
2022-08-30T06:28:22.978Z,102214.16
2022-08-30T06:30:26.222Z,102214.72
2022-08-30T06:32:29.551Z,102215.34
2022-08-30T06:34:32.868Z,102218.72
2022-08-30T06:36:36.493Z,102222.41
2022-08-30T06:38:42.236Z,102217.97
2022-08-30T06:40:45.617Z,102222.72
2022-08-30T06:42:49.447Z,102215.25
2022-08-30T06:44:52.804Z,102213.38
2022-08-30T06:46:56.239Z,102214.56
2022-08-30T06:49:00.497Z,102218.13
2022-08-30T06:51:03.857Z,102216.38
2022-08-30T06:53:07.378Z,102219.75
2022-08-30T06:55:13.952Z,102223.44
2022-08-30T06:57:17.939Z,102222.94
2022-08-30T06:59:21.192Z,102223.06
2022-08-30T07:01:26.631Z,102223.22
2022-08-30T07:03:29.948Z,102225.66
2022-08-30T07:05:34.233Z,102220.06
2022-08-30T07:07:37.577Z,102223.63
2022-08-30T07:09:43.417Z,102224.75
2022-08-30T07:11:48.065Z,102223.75
2022-08-30T07:13:51.347Z,102221.63
2022-08-30T07:15:54.631Z,102232.56
2022-08-30T07:18:15.215Z,102221.03
2022-08-30T07:20:18.806Z,102220.25
2022-08-30T07:22:23.065Z,102220.75
2022-08-30T07:24:26.509Z,102224.69
2022-08-30T07:26:33.956Z,102217.56
2022-08-30T07:28:40.849Z,102212.38
2022-08-30T07:30:44.587Z,102219.47
2022-08-30T07:32:48.028Z,102220.28
2022-08-30T07:34:51.664Z,102215.56
2022-08-30T07:36:55.253Z,102216.13
2022-08-30T07:38:58.978Z,102220.44
2022-08-30T07:41:02.542Z,102218.59
2022-08-30T07:43:06.225Z,102218.16
2022-08-30T07:45:13.023Z,102226.75
2022-08-30T07:47:17.053Z,102221.00
2022-08-30T07:49:20.956Z,102230.28
2022-08-30T07:51:27.869Z,102237.22
2022-08-30T07:53:31.290Z,102240.13
2022-08-30T07:55:34.989Z,102242.25
2022-08-30T07:57:38.749Z,102233.69
2022-08-30T07:59:42.298Z,102239.03
2022-08-30T08:01:47.302Z,102232.94
2022-08-30T08:03:51.661Z,102235.91
2022-08-30T08:05:55.796Z,102249.00
2022-08-30T08:07:59.700Z,102248.16
2022-08-30T08:10:03.582Z,102257.47
2022-08-30T08:12:09.056Z,102254.66
2022-08-30T08:14:12.610Z,102251.34
2022-08-30T08:16:16.278Z,102262.66
2022-08-30T08:18:22.459Z,102263.50
2022-08-30T08:20:26.406Z,102266.53
2022-08-30T08:22:29.966Z,102258.69
2022-08-30T08:24:33.661Z,102267.16
2022-08-30T08:26:38.401Z,102265.97
2022-08-30T08:28:45.222Z,102271.88
2022-08-30T08:30:50.616Z,102269.97
2022-08-30T08:32:54.447Z,102271.88
2022-08-30T08:34:59.756Z,102274.25
2022-08-30T08:37:03.562Z,102274.63
2022-08-30T08:39:09.501Z,102276.59
2022-08-30T08:41:25.095Z,102276.03
2022-08-30T08:43:29.161Z,102288.50
2022-08-30T08:45:44.563Z,102283.78
2022-08-30T08:47:56.161Z,102290.09
2022-08-30T08:50:06.414Z,102281.19
2022-08-30T08:52:35.800Z,102293.31
2022-08-30T08:54:45.559Z,102288.50
2022-08-30T08:56:49.255Z,102279.69
2022-08-30T08:58:55.621Z,102284.19
2022-08-30T09:01:00.860Z,102278.19
2022-08-30T09:03:06.196Z,102281.09
2022-08-30T09:05:16.092Z,102293.94
2022-08-30T09:07:24.678Z,102289.75
2022-08-30T09:09:31.675Z,102284.09
2022-08-30T09:11:37.377Z,102283.31
2022-08-30T09:13:40.939Z,102289.53
2022-08-30T09:15:44.608Z,102284.81
2022-08-30T09:17:54.404Z,102282.03
2022-08-30T09:20:02.732Z,102289.91
2022-08-30T09:22:15.952Z,102292.06
2022-08-30T09:24:20.686Z,102293.78
2022-08-30T09:26:33.513Z,102292.19
2022-08-30T09:28:49.411Z,102290.75
2022-08-30T09:31:10.021Z,102293.19
2022-08-30T09:33:21.964Z,102292.28
2022-08-30T09:35:27.278Z,102295.69
2022-08-30T09:37:37.423Z,102287.72
2022-08-30T09:39:45.353Z,102295.13
2022-08-30T09:41:50.932Z,102298.75
2022-08-30T09:44:07.616Z,102294.56
2022-08-30T09:46:16.402Z,102292.66
2022-08-30T09:48:30.623Z,102307.97
2022-08-30T09:50:38.388Z,102303.94
2022-08-30T09:53:01.226Z,102301.44
2022-08-30T09:55:30.967Z,102303.19
2022-08-30T09:57:41.173Z,102320.78
2022-08-30T09:59:50.153Z,102311.63
2022-08-30T10:02:02.058Z,102313.97
2022-08-30T10:04:16.995Z,102306.38
2022-08-30T10:06:30.257Z,102305.75
2022-08-30T10:08:40.676Z,102309.81
2022-08-30T10:10:52.826Z,102314.66
2022-08-30T10:13:07.855Z,102317.53
2022-08-30T10:15:19.209Z,102316.91
2022-08-30T10:17:39.289Z,102318.94
2022-08-30T10:20:00.711Z,102324.47
2022-08-30T10:22:12.495Z,102327.00
2022-08-30T10:24:21.528Z,102327.84
2022-08-30T10:26:30.055Z,102329.06
2022-08-30T10:28:39.203Z,102336.75
2022-08-30T10:30:49.121Z,102332.88
2022-08-30T10:33:00.103Z,102333.00
2022-08-30T10:35:09.373Z,102329.47
2022-08-30T10:37:16.625Z,102335.56
2022-08-30T10:39:28.194Z,102323.97
2022-08-30T10:41:38.353Z,102316.25
2022-08-30T10:43:51.139Z,102317.13
2022-08-30T10:46:01.510Z,102317.53
2022-08-30T10:48:13.148Z,102312.84
2022-08-30T10:50:20.022Z,102313.78
2022-08-30T10:52:31.333Z,102311.28
2022-08-30T10:54:43.061Z,102309.72
2022-08-30T10:56:49.857Z,102304.44
2022-08-30T10:58:55.081Z,102302.94
2022-08-30T11:01:12.391Z,102319.88
2022-08-30T11:04:03.678Z,102316.38
2022-08-30T11:06:26.467Z,102313.16
2022-08-30T11:08:52.275Z,102318.44
2022-08-30T11:11:08.044Z,102323.28
2022-08-30T11:13:19.422Z,102316.00
2022-08-30T11:15:25.402Z,102313.31
2022-08-30T11:17:33.530Z,102323.38
2022-08-30T11:19:39.600Z,102318.44
2022-08-30T11:21:45.884Z,102316.41
2022-08-30T11:24:02.459Z,102309.44
2022-08-30T11:26:12.182Z,102304.50
2022-08-30T11:29:02.124Z,102303.03
2022-08-30T11:31:07.367Z,102316.31
2022-08-30T11:33:32.512Z,102306.56
2022-08-30T11:35:48.103Z,102309.06
2022-08-30T11:37:52.303Z,102306.91
2022-08-30T11:40:01.963Z,102313.00
2022-08-30T11:42:29.574Z,102303.41
2022-08-30T11:44:34.486Z,102296.09
2022-08-30T11:46:40.877Z,102301.22
2022-08-30T11:48:55.901Z,102314.66
2022-08-30T11:51:06.799Z,102309.53
2022-08-30T11:53:22.005Z,102314.88
2022-08-30T11:55:54.925Z,102312.63
2022-08-30T11:58:13.264Z,102311.97
2022-08-30T12:00:31.536Z,102312.47
2022-08-30T12:02:48.946Z,102324.72
2022-08-30T12:04:56.443Z,102323.38
2022-08-30T12:07:05.789Z,102325.38
2022-08-30T12:09:10.815Z,102323.38
2022-08-30T12:11:57.426Z,102332.66
2022-08-30T12:14:04.287Z,102327.63
2022-08-30T12:16:14.269Z,102325.91
2022-08-30T12:18:28.370Z,102329.56
2022-08-30T12:20:41.457Z,102328.25
2022-08-30T12:22:45.828Z,102328.09
2022-08-30T12:24:53.720Z,102327.38
2022-08-30T12:27:00.565Z,102324.03
2022-08-30T12:29:18.131Z,102327.97
2022-08-30T12:31:25.812Z,102324.00
2022-08-30T12:33:40.276Z,102321.41
2022-08-30T12:35:45.801Z,102321.72
2022-08-30T12:37:58.938Z,102329.09
2022-08-30T12:40:03.919Z,102317.25
2022-08-30T12:42:17.741Z,102325.16
2022-08-30T12:44:25.793Z,102316.03
2022-08-30T12:46:30.554Z,102312.84
2022-08-30T12:48:37.337Z,102318.31
2022-08-30T12:50:51.997Z,102314.50
2022-08-30T12:53:00.487Z,102310.84
2022-08-30T12:55:17.671Z,102297.25
2022-08-30T12:57:40.763Z,102304.09
2022-08-30T12:59:58.122Z,102310.59
2022-08-30T13:02:10.393Z,102307.13
2022-08-30T13:04:28.572Z,102309.44
2022-08-30T13:06:45.179Z,102313.00
2022-08-30T13:08:53.560Z,102313.69
2022-08-30T13:11:05.797Z,102308.44
2022-08-30T13:13:11.721Z,102309.88
2022-08-30T13:15:28.918Z,102306.53
2022-08-30T13:17:32.715Z,102313.63
2022-08-30T13:19:37.951Z,102311.84
2022-08-30T13:21:51.655Z,102310.53
2022-08-30T13:23:59.812Z,102327.50
2022-08-30T13:26:08.252Z,102328.53
2022-08-30T13:28:12.368Z,102325.75
2022-08-30T13:30:17.429Z,102322.09
2022-08-30T13:32:22.854Z,102321.47
2022-08-30T13:34:26.673Z,102310.94
2022-08-30T13:36:32.520Z,102296.81
2022-08-30T13:38:36.409Z,102300.22
2022-08-30T13:40:40.086Z,102309.25
2022-08-30T13:42:43.941Z,102303.06
2022-08-30T13:44:48.171Z,102297.38
2022-08-30T13:47:32.305Z,102291.34
2022-08-30T13:52:09.376Z,102292.94
2022-08-30T13:54:12.749Z,102290.91
2022-08-30T13:56:16.870Z,102287.50
2022-08-30T13:58:20.598Z,102289.47
2022-08-30T14:00:25.694Z,102291.47
2022-08-30T14:02:29.653Z,102288.16
2022-08-30T14:04:34.894Z,102290.41
2022-08-30T14:07:11.869Z,102290.41
2022-08-30T14:09:04.297Z,102291.03
2022-08-30T14:11:09.385Z,102290.84
2022-08-30T14:13:13.536Z,102282.28
2022-08-30T14:15:17.647Z,102289.66
2022-08-30T14:17:21.272Z,102289.66
2022-08-30T14:19:25.370Z,102287.84
2022-08-30T14:21:30.698Z,102288.03
2022-08-30T14:23:34.313Z,102286.13
2022-08-30T14:25:37.979Z,102291.47
2022-08-30T14:27:44.633Z,102293.22
2022-08-30T14:29:49.706Z,102290.19
2022-08-30T14:31:53.681Z,102292.97
2022-08-30T14:33:57.235Z,102292.03
2022-08-30T14:36:00.822Z,102291.25
2022-08-30T14:38:06.513Z,102283.31
2022-08-30T14:40:14.892Z,102287.63
2022-08-30T14:42:20.105Z,102292.22
2022-08-30T14:44:25.018Z,102286.66
2022-08-30T14:46:28.665Z,102290.41
2022-08-30T14:48:32.256Z,102289.13
2022-08-30T14:50:36.014Z,102285.28
2022-08-30T14:52:40.046Z,102291.72
2022-08-30T14:54:45.070Z,102289.56
2022-08-30T14:56:49.284Z,102287.63
2022-08-30T14:59:00.605Z,102291.59
2022-08-30T15:01:08.989Z,102296.75
2022-08-30T15:03:12.915Z,102282.47
2022-08-30T15:05:16.802Z,102289.91
2022-08-30T15:07:20.283Z,102298.66
2022-08-30T15:09:25.258Z,102297.50
2022-08-30T15:11:30.243Z,102292.75
2022-08-30T15:13:36.900Z,102296.00
2022-08-30T15:15:43.971Z,102299.00
2022-08-30T15:17:48.123Z,102294.06
2022-08-30T15:19:52.629Z,102298.47
2022-08-30T15:21:56.594Z,102293.50
2022-08-30T15:24:00.959Z,102294.38
2022-08-30T15:26:04.773Z,102290.00
2022-08-30T15:28:09.917Z,102290.66
2022-08-30T15:30:15.470Z,102289.56
2022-08-30T15:32:23.179Z,102277.25
2022-08-30T15:34:28.328Z,102278.63
2022-08-30T15:36:32.500Z,102282.81
2022-08-30T15:38:36.527Z,102279.91
2022-08-30T15:40:40.257Z,102278.44
2022-08-30T15:42:44.977Z,102266.69
2022-08-30T15:44:53.730Z,102270.88
2022-08-30T15:46:57.575Z,102276.75
2022-08-30T15:49:03.084Z,102271.06
2022-08-30T15:51:07.610Z,102270.22
2022-08-30T15:53:13.407Z,102267.66
2022-08-30T15:55:17.090Z,102262.41
2022-08-30T15:57:20.799Z,102261.03
2022-08-30T15:59:24.376Z,102268.22
2022-08-30T16:01:30.541Z,102258.06
2022-08-30T16:03:34.757Z,102260.84
2022-08-30T16:05:41.487Z,102252.72
2022-08-30T16:07:46.901Z,102257.94
2022-08-30T16:09:52.281Z,102260.53
2022-08-30T16:11:56.096Z,102256.78
2022-08-30T16:14:00.361Z,102264.44
2022-08-30T16:16:05.026Z,102256.72
2022-08-30T16:18:10.291Z,102257.28
2022-08-30T16:20:14.361Z,102259.06
2022-08-30T16:22:22.201Z,102261.97
2022-08-30T16:24:26.296Z,102261.03
2022-08-30T16:26:31.389Z,102258.22
2022-08-30T16:28:35.159Z,102258.13
2022-08-30T16:30:38.892Z,102252.56
2022-08-30T16:32:44.253Z,102248.16
2022-08-30T16:34:49.916Z,102252.03
2022-08-30T16:36:53.741Z,102261.75
2022-08-30T16:38:58.577Z,102259.63
2022-08-30T16:41:06.277Z,102256.84
2022-08-30T16:43:10.410Z,102253.78
2022-08-30T16:45:14.464Z,102258.16
2022-08-30T16:47:18.301Z,102251.59
2022-08-30T16:49:22.598Z,102255.56
2022-08-30T16:51:31.576Z,102246.13
2022-08-30T16:53:35.871Z,102243.22
2022-08-30T16:55:41.041Z,102252.66
2022-08-30T16:57:45.746Z,102259.06
2022-08-30T16:59:52.456Z,102255.84
2022-08-30T17:01:56.671Z,102252.50
2022-08-30T17:04:00.781Z,102254.34
2022-08-30T17:06:04.822Z,102265.44
2022-08-30T17:08:10.127Z,102249.81
2022-08-30T17:10:13.783Z,102259.22
2022-08-30T17:12:17.295Z,102253.88
2022-08-30T17:14:27.949Z,102257.72
2022-08-30T17:16:33.475Z,102264.13
2022-08-30T17:18:37.752Z,102257.72
2022-08-30T17:20:41.462Z,102261.34
2022-08-30T17:22:48.280Z,102259.72
2022-08-30T17:24:53.568Z,102254.25
2022-08-30T17:26:58.377Z,102266.47
2022-08-30T17:29:02.706Z,102256.63
2022-08-30T17:31:06.868Z,102263.69
2022-08-30T17:33:11.587Z,102259.41
2022-08-30T17:35:18.496Z,102251.81
2022-08-30T17:37:22.158Z,102256.59
2022-08-30T17:39:25.982Z,102248.25
2022-08-30T17:41:31.034Z,102247.63
2022-08-30T17:43:38.442Z,102255.38
2022-08-30T17:45:42.015Z,102249.38
2022-08-30T17:47:46.098Z,102244.13
2022-08-30T17:49:50.280Z,102248.69
2022-08-30T17:51:56.945Z,102250.09
2022-08-30T17:54:00.994Z,102249.25
2022-08-30T17:56:05.742Z,102245.72
2022-08-30T17:58:10.791Z,102250.41
2022-08-30T18:00:15.702Z,102251.59
2022-08-30T18:02:22.755Z,102253.53
2022-08-30T18:04:27.099Z,102248.91
2022-08-30T18:06:31.279Z,102248.91
2022-08-30T18:08:35.655Z,102259.63
2022-08-30T18:10:39.468Z,102247.00
2022-08-30T18:12:43.998Z,102255.31
2022-08-30T18:14:52.814Z,102256.19
2022-08-30T18:16:57.837Z,102259.63
2022-08-30T18:19:01.679Z,102249.38
2022-08-30T18:21:12.978Z,102254.28
2022-08-30T18:23:16.872Z,102261.38
2022-08-30T18:25:20.911Z,102259.75
2022-08-30T18:27:24.520Z,102270.66
2022-08-30T18:29:31.551Z,102272.28
2022-08-30T18:31:36.496Z,102274.13
2022-08-30T18:33:41.044Z,102275.28
2022-08-30T18:35:48.510Z,102273.75
2022-08-30T18:37:52.388Z,102274.94
2022-08-30T18:39:55.933Z,102284.09
2022-08-30T18:41:59.811Z,102281.63
2022-08-30T18:44:26.231Z,102291.69
2022-08-30T18:46:28.033Z,102286.34
2022-08-30T18:48:34.719Z,102289.66
2022-08-30T18:50:41.771Z,102286.75
2022-08-30T18:52:45.593Z,102287.53
2022-08-30T18:54:52.942Z,102289.84
2022-08-30T18:56:57.123Z,102284.63
2022-08-30T18:59:00.828Z,102283.09
2022-08-30T19:01:06.435Z,102276.13
2022-08-30T19:03:10.655Z,102281.56
2022-08-30T19:05:17.423Z,102280.81
2022-08-30T19:07:22.500Z,102278.13
2022-08-30T19:09:32.593Z,102276.44
2022-08-30T19:11:36.426Z,102282.84
2022-08-30T19:13:42.002Z,102281.50
2022-08-30T19:15:45.596Z,102281.88
2022-08-30T19:17:49.565Z,102280.38
2022-08-30T19:19:53.782Z,102290.38
2022-08-30T19:21:59.801Z,102285.25
2022-08-30T19:24:04.132Z,102293.38
2022-08-30T19:26:08.409Z,102292.41
2022-08-30T19:28:14.935Z,102292.47
2022-08-30T19:30:23.997Z,102283.50
2022-08-30T19:32:32.703Z,102283.50
2022-08-30T19:34:36.313Z,102289.06
2022-08-30T19:36:40.491Z,102286.78
2022-08-30T19:38:45.764Z,102281.94
2022-08-30T19:40:54.427Z,102285.56
2022-08-30T19:42:59.657Z,102282.09
2022-08-30T19:45:03.475Z,102283.19
2022-08-30T19:47:09.747Z,102287.00
2022-08-30T19:49:14.490Z,102289.75
2022-08-30T19:51:18.178Z,102287.16
2022-08-30T19:53:22.996Z,102289.94
2022-08-30T19:55:31.275Z,102288.22
2022-08-30T19:57:35.534Z,102289.94
2022-08-30T19:59:39.851Z,102303.19
2022-08-30T20:01:43.966Z,102293.66
2022-08-30T20:03:51.929Z,102292.13
2022-08-30T20:05:56.473Z,102293.09
2022-08-30T20:08:00.893Z,102296.63
2022-08-30T20:10:06.571Z,102297.78
2022-08-30T20:12:12.287Z,102300.63
2022-08-30T20:14:16.443Z,102296.50
2022-08-30T20:16:20.734Z,102302.81
2022-08-30T20:18:37.710Z,102303.00
2022-08-30T20:20:42.359Z,102304.81
2022-08-30T20:22:54.402Z,102303.09
2022-08-30T20:24:58.302Z,102293.38
2022-08-30T20:27:03.980Z,102303.00
2022-08-30T20:29:10.098Z,102295.06
2022-08-30T20:31:14.101Z,102305.13
2022-08-30T20:33:18.328Z,102310.56
2022-08-30T20:35:23.959Z,102301.75
2022-08-30T20:37:30.135Z,102308.22
2022-08-30T20:39:34.443Z,102310.16
2022-08-30T20:41:40.109Z,102308.63
2022-08-30T20:43:48.536Z,102307.00
2022-08-30T20:45:55.583Z,102312.44
2022-08-30T20:47:59.574Z,102307.25
2022-08-30T20:50:06.933Z,102306.59
2022-08-30T20:52:18.528Z,102311.94
2022-08-30T20:54:22.437Z,102312.00
2022-08-30T20:56:29.747Z,102313.81
2022-08-30T20:58:33.362Z,102315.75
2022-08-30T21:00:37.757Z,102316.59
2022-08-30T21:02:46.837Z,102314.09
2022-08-30T21:04:52.338Z,102319.69
2022-08-30T21:06:56.341Z,102313.50
2022-08-30T21:09:00.581Z,102318.16
2022-08-30T21:11:04.377Z,102319.03
2022-08-30T21:13:08.455Z,102316.47
2022-08-30T21:15:34.403Z,102312.81
2022-08-30T21:17:37.064Z,102322.84
2022-08-30T21:19:45.887Z,102318.41
2022-08-30T21:21:49.688Z,102318.59
2022-08-30T21:23:54.729Z,102324.69
2022-08-30T21:25:58.886Z,102317.81
2022-08-30T21:28:02.634Z,102320.84
2022-08-30T21:30:07.640Z,102317.50
2022-08-30T21:32:11.649Z,102329.09
2022-08-30T21:34:17.231Z,102335.56
2022-08-30T21:36:42.319Z,102328.69
2022-08-30T21:38:46.447Z,102332.31
2022-08-30T21:40:50.616Z,102341.19
2022-08-30T21:42:54.677Z,102333.19
2022-08-30T21:44:58.928Z,102326.81
2022-08-30T21:47:02.769Z,102336.69
2022-08-30T21:49:09.136Z,102340.25
2022-08-30T21:51:13.704Z,102336.03
2022-08-30T21:53:19.467Z,102334.31
2022-08-30T21:55:23.525Z,102341.53
2022-08-30T21:57:27.797Z,102334.50
2022-08-30T21:59:31.285Z,102337.06
2022-08-30T22:01:37.544Z,102334.41
2022-08-30T22:03:42.783Z,102338.09
2022-08-30T22:05:52.949Z,102336.28
2022-08-30T22:07:57.103Z,102343.44
2022-08-30T22:10:02.336Z,102335.53
2022-08-30T22:12:07.428Z,102332.84
2022-08-30T22:14:13.626Z,102337.50
2022-08-30T22:16:19.701Z,102338.53
2022-08-30T22:18:23.912Z,102337.75
2022-08-30T22:20:30.397Z,102336.78
2022-08-30T22:22:34.669Z,102343.00
2022-08-30T22:24:40.514Z,102334.13
2022-08-30T22:26:46.754Z,102335.00
2022-08-30T22:28:51.070Z,102342.13
2022-08-30T22:30:55.222Z,102335.94
2022-08-30T22:32:59.183Z,102339.56
2022-08-30T22:35:02.931Z,102341.28
2022-08-30T22:37:07.488Z,102343.09
2022-08-30T22:39:11.841Z,102345.81
2022-08-30T22:41:18.223Z,102342.31
2022-08-30T22:43:23.933Z,102343.16
2022-08-30T22:45:28.242Z,102348.44
2022-08-30T22:47:33.469Z,102350.22
2022-08-30T22:49:37.354Z,102344.03
2022-08-30T22:51:42.888Z,102350.06
2022-08-30T22:53:46.763Z,102348.16
2022-08-30T22:55:50.830Z,102353.31
2022-08-30T22:57:55.393Z,102349.72
2022-08-30T23:00:01.319Z,102356.69
2022-08-30T23:02:05.514Z,102352.09
2022-08-30T23:04:10.187Z,102356.41
2022-08-30T23:06:14.248Z,102356.41
2022-08-30T23:08:18.201Z,102354.53
2022-08-30T23:10:28.509Z,102356.41
2022-08-30T23:12:32.641Z,102357.38
2022-08-30T23:14:36.844Z,102360.03
2022-08-30T23:16:42.245Z,102361.75
2022-08-30T23:18:47.947Z,102361.75
2022-08-30T23:20:51.955Z,102365.19
2022-08-30T23:23:00.637Z,102364.25
2022-08-30T23:25:21.533Z,102369.59
2022-08-30T23:27:46.251Z,102366.94
2022-08-30T23:30:07.506Z,102365.19
2022-08-30T23:32:30.693Z,102371.47
2022-08-30T23:34:52.393Z,102367.25
2022-08-30T23:37:13.738Z,102375.53
2022-08-30T23:39:35.488Z,102365.91
2022-08-30T23:41:56.976Z,102369.69
2022-08-30T23:44:18.358Z,102374.31
2022-08-30T23:46:39.813Z,102372.84
2022-08-30T23:49:02.192Z,102370.28
2022-08-30T23:51:24.007Z,102369.50
2022-08-30T23:53:45.105Z,102367.69
2022-08-30T23:56:06.810Z,102367.69
2022-08-30T23:58:30.236Z,102363.31
